createdAt,value
2023-01-05T00:01:07.491Z,99228.09
2023-01-05T00:03:35.755Z,99231.81
2023-01-05T00:06:08.266Z,99223.63
2023-01-05T00:08:37.552Z,99218.59
2023-01-05T00:11:30.159Z,99225.16
2023-01-05T00:14:15.669Z,99229.88
2023-01-05T00:17:00.627Z,99220.66
2023-01-05T00:19:48.937Z,99222.50
2023-01-05T00:22:32.372Z,99215.50
2023-01-05T00:25:12.562Z,99220.09
2023-01-05T00:27:44.856Z,99215.78
2023-01-05T00:30:14.181Z,99218.75
2023-01-05T00:32:42.324Z,99225.38
2023-01-05T00:35:10.171Z,99221.00
2023-01-05T00:37:38.544Z,99222.94
2023-01-05T00:40:10.976Z,99202.09
2023-01-05T00:42:38.159Z,99208.91
2023-01-05T00:45:09.610Z,99198.03
2023-01-05T00:47:36.236Z,99205.13
2023-01-05T00:50:03.797Z,99192.69
2023-01-05T00:52:30.307Z,99192.97
2023-01-05T00:54:56.836Z,99199.50
2023-01-05T00:57:23.379Z,99191.44
2023-01-05T00:59:49.876Z,99198.13
2023-01-05T01:02:16.489Z,99198.25
2023-01-05T01:04:43.202Z,99189.47
2023-01-05T01:07:09.984Z,99190.47
2023-01-05T01:09:37.381Z,99192.00
2023-01-05T01:12:04.156Z,99172.91
2023-01-05T01:14:30.980Z,99193.56
2023-01-05T01:16:57.539Z,99174.59
2023-01-05T01:19:26.111Z,99183.41
2023-01-05T01:21:52.685Z,99182.72
2023-01-05T01:24:25.249Z,99178.25
2023-01-05T01:26:52.762Z,99189.25
2023-01-05T01:29:20.044Z,99191.16
2023-01-05T01:31:51.658Z,99183.78
2023-01-05T01:34:18.644Z,99188.00
2023-01-05T01:36:45.712Z,99176.94
2023-01-05T01:39:12.911Z,99187.38
2023-01-05T01:41:39.671Z,99184.03
2023-01-05T01:44:43.612Z,99188.94
2023-01-05T01:47:25.826Z,99182.53
2023-01-05T01:49:55.714Z,99174.41
2023-01-05T01:52:24.781Z,99168.16
2023-01-05T01:54:52.355Z,99171.19
2023-01-05T01:57:19.125Z,99177.63
2023-01-05T01:59:45.893Z,99174.97
2023-01-05T02:02:13.564Z,99169.25
2023-01-05T02:04:40.810Z,99157.13
2023-01-05T02:07:13.405Z,99159.94
2023-01-05T02:09:39.900Z,99123.25
2023-01-05T02:12:25.942Z,99154.53
2023-01-05T02:15:07.624Z,99159.81
2023-01-05T02:17:56.715Z,99161.09
2023-01-05T02:20:29.194Z,99156.63
2023-01-05T02:23:46.184Z,99136.13
2023-01-05T02:26:39.968Z,99149.94
2023-01-05T02:29:36.169Z,99150.25
2023-01-05T02:32:13.164Z,99148.97
2023-01-05T02:34:54.918Z,99153.59
2023-01-05T02:37:35.663Z,99141.03
2023-01-05T02:40:24.782Z,99149.97
2023-01-05T02:42:55.739Z,99151.38
2023-01-05T02:45:24.580Z,99144.56
2023-01-05T02:47:52.184Z,99141.06
2023-01-05T02:50:24.240Z,99145.22
2023-01-05T02:52:54.659Z,99144.00
2023-01-05T02:55:28.856Z,99136.84
2023-01-05T02:58:03.281Z,99135.34
2023-01-05T03:00:42.956Z,99130.03
2023-01-05T03:03:34.392Z,99121.41
2023-01-05T03:06:12.819Z,99115.41
2023-01-05T03:08:48.921Z,99120.84
2023-01-05T03:11:34.467Z,99119.59
2023-01-05T03:14:12.738Z,99107.47
2023-01-05T03:16:39.932Z,99108.59
2023-01-05T03:19:29.791Z,99112.38
2023-01-05T03:22:16.558Z,99121.97
2023-01-05T03:25:03.499Z,99111.78
2023-01-05T03:27:49.971Z,99111.66
2023-01-05T03:30:35.413Z,99117.91
2023-01-05T03:33:33.171Z,99106.59
2023-01-05T03:36:01.017Z,99100.34
2023-01-05T03:38:43.930Z,99093.09
2023-01-05T03:41:14.285Z,99095.19
2023-01-05T03:43:42.973Z,99094.63
2023-01-05T03:46:17.857Z,99091.84
2023-01-05T03:48:44.443Z,99101.19
2023-01-05T03:51:11.080Z,99083.47
2023-01-05T03:53:37.794Z,99095.34
2023-01-05T03:56:04.963Z,99081.38
2023-01-05T03:58:31.675Z,99086.72
2023-01-05T04:00:58.133Z,99094.50
2023-01-05T04:03:31.066Z,99097.69
2023-01-05T04:05:58.096Z,99098.41
2023-01-05T04:08:24.612Z,99087.53
2023-01-05T04:10:54.285Z,99104.00
2023-01-05T04:13:20.920Z,99097.84
2023-01-05T04:15:47.480Z,99102.75
2023-01-05T04:18:14.075Z,99083.78
2023-01-05T04:20:43.627Z,99076.22
2023-01-05T04:23:13.351Z,99095.16
2023-01-05T04:25:39.962Z,99093.22
2023-01-05T04:28:06.481Z,99091.22
2023-01-05T04:30:32.953Z,99093.03
2023-01-05T04:32:59.456Z,99088.03
2023-01-05T04:35:25.924Z,99089.16
2023-01-05T04:37:52.416Z,99090.13
2023-01-05T04:40:18.980Z,99092.69
2023-01-05T04:42:46.761Z,99088.47
2023-01-05T04:45:13.463Z,99087.78
2023-01-05T04:47:39.998Z,99099.63
2023-01-05T04:50:07.287Z,99097.69
2023-01-05T04:52:33.984Z,99087.78
2023-01-05T04:55:00.504Z,99085.28
2023-01-05T04:57:27.307Z,99098.25
2023-01-05T04:59:53.890Z,99076.66
2023-01-05T05:02:20.552Z,99082.78
2023-01-05T05:04:47.821Z,99092.84
2023-01-05T05:07:14.361Z,99096.44
2023-01-05T05:09:40.894Z,99099.38
2023-01-05T05:12:07.751Z,99088.53
2023-01-05T05:14:34.252Z,99093.25
2023-01-05T05:17:00.846Z,99072.75
2023-01-05T05:19:27.381Z,99089.50
2023-01-05T05:21:53.930Z,99085.31
2023-01-05T05:24:20.451Z,99086.84
2023-01-05T05:26:47.148Z,99084.03
2023-01-05T05:29:16.635Z,99096.16
2023-01-05T05:31:43.429Z,99101.75
2023-01-05T05:34:09.997Z,99098.00
2023-01-05T05:36:38.083Z,99107.31
2023-01-05T05:39:04.609Z,99092.38
2023-01-05T05:41:31.230Z,99115.53
2023-01-05T05:44:00.882Z,99111.94
2023-01-05T05:46:28.594Z,99117.78
2023-01-05T05:48:57.629Z,99112.59
2023-01-05T05:51:25.074Z,99107.47
2023-01-05T05:53:52.028Z,99117.78
2023-01-05T05:56:18.988Z,99117.78
2023-01-05T05:58:48.686Z,99118.91
2023-01-05T06:01:18.272Z,99111.81
2023-01-05T06:03:46.941Z,99111.66
2023-01-05T06:06:13.487Z,99103.56
2023-01-05T06:08:40.006Z,99118.63
2023-01-05T06:11:06.608Z,99112.75
2023-01-05T06:13:33.444Z,99110.50
2023-01-05T06:16:00.077Z,99120.72
2023-01-05T06:18:28.322Z,99125.34
2023-01-05T06:21:01.179Z,99116.28
2023-01-05T06:23:28.175Z,99120.88
2023-01-05T06:25:54.696Z,99112.50
2023-01-05T06:28:21.194Z,99115.81
2023-01-05T06:30:50.845Z,99120.84
2023-01-05T06:33:20.281Z,99117.22
2023-01-05T06:35:50.335Z,99117.22
2023-01-05T06:38:27.069Z,99082.06
2023-01-05T06:40:54.745Z,99106.63
2023-01-05T06:43:21.625Z,99106.09
2023-01-05T06:45:52.870Z,99109.00
2023-01-05T06:48:19.444Z,99110.25
2023-01-05T06:50:48.277Z,99101.31
2023-01-05T06:53:14.748Z,99110.25
2023-01-05T06:55:41.246Z,99106.06
2023-01-05T06:58:07.823Z,99103.00
2023-01-05T07:00:34.451Z,99109.69
2023-01-05T07:03:01.025Z,99098.13
2023-01-05T07:05:27.736Z,99105.78
2023-01-05T07:07:54.505Z,99101.34
2023-01-05T07:10:21.494Z,99110.56
2023-01-05T07:12:49.482Z,99103.88
2023-01-05T07:15:19.066Z,99084.75
2023-01-05T07:17:46.105Z,99103.00
2023-01-05T07:20:13.120Z,99108.59
2023-01-05T07:22:40.046Z,99105.25
2023-01-05T07:25:07.105Z,99098.38
2023-01-05T07:27:33.721Z,99089.78
2023-01-05T07:30:00.308Z,99097.03
2023-01-05T07:32:26.820Z,99103.31
2023-01-05T07:34:55.635Z,99097.00
2023-01-05T07:37:24.756Z,99095.59
2023-01-05T07:39:52.495Z,99116.53
2023-01-05T07:42:19.513Z,99107.06
2023-01-05T07:44:48.881Z,99106.09
2023-01-05T07:47:16.326Z,99094.50
2023-01-05T07:49:43.172Z,99111.38
2023-01-05T07:52:10.284Z,99100.91
2023-01-05T07:54:37.190Z,99116.53
2023-01-05T07:57:03.905Z,99115.84
2023-01-05T07:59:30.519Z,99115.16
2023-01-05T08:01:57.502Z,99116.13
2023-01-05T08:04:24.464Z,99121.53
2023-01-05T08:06:52.703Z,99112.78
2023-01-05T08:09:37.847Z,99126.56
2023-01-05T08:12:07.155Z,99126.81
2023-01-05T08:14:33.727Z,99097.69
2023-01-05T08:17:00.316Z,99122.19
2023-01-05T08:19:27.071Z,99134.34
2023-01-05T08:21:53.585Z,99114.69
2023-01-05T08:24:20.367Z,99127.78
2023-01-05T08:26:51.276Z,99124.03
2023-01-05T08:29:21.686Z,99125.69
2023-01-05T08:31:48.699Z,99124.97
2023-01-05T08:34:15.290Z,99126.69
2023-01-05T08:36:41.873Z,99131.13
2023-01-05T08:39:11.050Z,99130.28
2023-01-05T08:41:39.083Z,99125.50
2023-01-05T08:44:07.673Z,99119.09
2023-01-05T08:46:36.228Z,99119.72
2023-01-05T08:49:06.113Z,99116.91
2023-01-05T08:51:33.214Z,99117.13
2023-01-05T08:53:59.953Z,99116.88
2023-01-05T08:56:27.241Z,99118.81
2023-01-05T08:58:59.095Z,99120.34
2023-01-05T09:01:25.926Z,99110.13
2023-01-05T09:03:52.569Z,99094.09
2023-01-05T09:06:19.081Z,99112.97
2023-01-05T09:08:49.522Z,99116.88
2023-01-05T09:11:19.246Z,99122.84
2023-01-05T09:13:54.683Z,99120.13
2023-01-05T09:16:49.443Z,99119.97
2023-01-05T09:19:11.295Z,99126.47
2023-01-05T09:21:40.889Z,99117.16
2023-01-05T09:24:08.636Z,99126.69
2023-01-05T09:26:35.180Z,99133.13
2023-01-05T09:29:01.739Z,99123.56
2023-01-05T09:31:28.328Z,99131.53
2023-01-05T09:33:56.998Z,99122.06
2023-01-05T09:36:24.524Z,99123.28
2023-01-05T09:38:57.848Z,99125.63
2023-01-05T09:41:38.529Z,99137.81
2023-01-05T09:44:12.248Z,99144.38
2023-01-05T09:46:42.986Z,99149.69
2023-01-05T09:49:18.480Z,99138.13
2023-01-05T09:51:45.067Z,99135.72
2023-01-05T09:54:18.709Z,99149.53
2023-01-05T09:59:37.698Z,99149.00
2023-01-05T10:02:20.814Z,99145.28
2023-01-05T10:04:52.132Z,99152.16
2023-01-05T10:07:49.536Z,99161.16
2023-01-05T10:11:09.686Z,99157.50
2023-01-05T10:13:47.633Z,99157.50
2023-01-05T10:16:18.181Z,99158.91
2023-01-05T10:18:46.718Z,99155.59
2023-01-05T10:21:19.853Z,99157.25
2023-01-05T10:23:58.509Z,99155.44
2023-01-05T10:26:51.331Z,99147.75
2023-01-05T10:29:27.375Z,99147.53
2023-01-05T10:31:56.022Z,99147.28
2023-01-05T10:34:53.113Z,99150.88
2023-01-05T10:37:39.064Z,99160.22
2023-01-05T10:40:08.310Z,99157.28
2023-01-05T10:42:45.286Z,99161.56
2023-01-05T10:45:21.078Z,99152.00
2023-01-05T10:47:50.812Z,99146.66
2023-01-05T10:50:41.025Z,99142.50
2023-01-05T10:53:18.824Z,99128.69
2023-01-05T10:55:55.040Z,99137.69
2023-01-05T10:58:26.826Z,99117.28
2023-01-05T11:01:23.391Z,99132.66
2023-01-05T11:04:26.506Z,99129.72
2023-01-05T11:06:41.437Z,99112.50
2023-01-05T11:09:22.561Z,99121.91
2023-01-05T11:12:22.725Z,99113.28
2023-01-05T11:14:58.415Z,99105.38
2023-01-05T11:17:28.417Z,99109.09
2023-01-05T11:19:57.485Z,99104.41
2023-01-05T11:22:35.649Z,99103.91
2023-01-05T11:25:30.837Z,99097.94
2023-01-05T11:28:14.927Z,99097.50
2023-01-05T11:31:04.539Z,99097.44
2023-01-05T11:33:34.896Z,99082.47
2023-01-05T11:36:03.838Z,99082.44
2023-01-05T11:38:31.404Z,99091.06
2023-01-05T11:41:00.260Z,99089.88
2023-01-05T11:43:30.592Z,99076.50
2023-01-05T11:46:00.910Z,99062.84
2023-01-05T11:48:32.748Z,99062.91
2023-01-05T11:50:59.952Z,99071.19
2023-01-05T11:53:26.526Z,99069.13
2023-01-05T11:56:08.357Z,99071.75
2023-01-05T11:58:49.043Z,99054.28
2023-01-05T12:01:48.795Z,99069.31
2023-01-05T12:04:35.073Z,99067.72
2023-01-05T12:07:32.777Z,99049.94
2023-01-05T12:10:35.062Z,99061.22
2023-01-05T12:13:18.550Z,99048.00
2023-01-05T12:16:22.066Z,99045.53
2023-01-05T12:19:06.974Z,99046.53
2023-01-05T12:21:41.362Z,99029.47
2023-01-05T12:24:07.934Z,99040.94
2023-01-05T12:26:46.872Z,99026.88
2023-01-05T12:35:55.234Z,99029.38
2023-01-05T12:38:43.848Z,99027.31
2023-01-05T12:41:26.441Z,99024.13
2023-01-05T12:44:34.141Z,99027.41
2023-01-05T12:47:38.941Z,99021.06
2023-01-05T12:50:21.324Z,99016.59
2023-01-05T12:52:52.727Z,99018.81
2023-01-05T12:55:33.900Z,99009.00
2023-01-05T12:58:12.518Z,99000.53
2023-01-05T13:00:46.264Z,99001.75
2023-01-05T13:03:52.125Z,99004.81
2023-01-05T13:06:24.106Z,98998.19
2023-01-05T13:09:03.578Z,99001.41
2023-01-05T13:11:52.363Z,99003.00
2023-01-05T13:14:24.189Z,98990.13
2023-01-05T13:16:59.556Z,98994.28
2023-01-05T13:19:38.354Z,98984.38
2023-01-05T13:22:29.221Z,98985.13
2023-01-05T13:25:03.618Z,98984.34
2023-01-05T13:27:32.123Z,98982.88
2023-01-05T13:30:01.257Z,98979.91
2023-01-05T13:32:49.473Z,98977.16
2023-01-05T13:35:37.790Z,98975.88
2023-01-05T13:38:37.781Z,98965.25
2023-01-05T13:41:13.354Z,98977.09
2023-01-05T13:44:01.744Z,98972.78
2023-01-05T13:46:40.343Z,98970.63
2023-01-05T13:49:28.567Z,98970.84
2023-01-05T13:52:01.222Z,98959.75
2023-01-05T13:54:43.081Z,98962.09
2023-01-05T13:57:24.022Z,98951.00
2023-01-05T14:00:06.573Z,98954.16
2023-01-05T14:02:40.348Z,98944.19
2023-01-05T14:05:16.551Z,98944.59
2023-01-05T14:07:43.353Z,98932.97
2023-01-05T14:10:27.312Z,98946.16
2023-01-05T14:12:54.445Z,98935.81
2023-01-05T14:15:29.883Z,98940.50
2023-01-05T14:17:58.170Z,98930.38
2023-01-05T14:20:45.048Z,98936.03
2023-01-05T14:23:23.766Z,98932.44
2023-01-05T14:26:06.732Z,98931.22
2023-01-05T14:28:36.249Z,98932.72
2023-01-05T14:31:11.122Z,98938.03
2023-01-05T14:33:46.842Z,98930.91
2023-01-05T14:36:33.801Z,98937.06
2023-01-05T14:39:22.760Z,98924.56
2023-01-05T14:42:01.536Z,98930.84
2023-01-05T14:44:34.682Z,98926.50
2023-01-05T14:47:01.981Z,98936.47
2023-01-05T14:49:37.154Z,98927.91
2023-01-05T14:52:06.712Z,98928.94
2023-01-05T14:54:42.427Z,98928.94
2023-01-05T14:57:27.226Z,98921.44
2023-01-05T15:00:03.929Z,98892.31
2023-01-05T15:02:34.823Z,98926.66
2023-01-05T15:05:08.140Z,98919.84
2023-01-05T15:08:14.031Z,98927.44
2023-01-05T15:11:11.180Z,98915.13
2023-01-05T15:14:23.613Z,98928.50
2023-01-05T15:17:08.299Z,98918.31
2023-01-05T15:19:55.024Z,98926.28
2023-01-05T15:22:42.836Z,98925.72
2023-01-05T15:25:58.875Z,98918.59
2023-01-05T15:29:23.997Z,98921.59
2023-01-05T15:32:06.111Z,98906.00
2023-01-05T15:34:57.290Z,98923.22
2023-01-05T15:37:33.247Z,98913.16
2023-01-05T15:40:04.123Z,98923.00
2023-01-05T15:42:42.676Z,98919.81
2023-01-05T15:45:19.791Z,98929.56
2023-01-05T15:47:47.497Z,98918.16
2023-01-05T15:50:25.488Z,98921.94
2023-01-05T15:52:57.824Z,98924.53
2023-01-05T15:55:25.973Z,98923.00
2023-01-05T15:58:04.860Z,98916.03
2023-01-05T16:00:34.269Z,98895.41
2023-01-05T16:03:01.684Z,98935.66
2023-01-05T16:05:33.980Z,98914.44
2023-01-05T16:08:08.165Z,98911.72
2023-01-05T16:10:41.379Z,98918.00
2023-01-05T16:13:18.678Z,98924.16
2023-01-05T16:15:48.372Z,98919.72
2023-01-05T16:18:23.417Z,98912.38
2023-01-05T16:20:53.328Z,98921.03
2023-01-05T16:23:42.759Z,98923.00
2023-01-05T16:26:17.337Z,98924.56
2023-01-05T16:28:45.095Z,98917.91
2023-01-05T16:31:24.809Z,98918.31
2023-01-05T16:34:12.283Z,98912.91
2023-01-05T16:36:38.849Z,98922.38
2023-01-05T16:39:23.119Z,98922.22
2023-01-05T16:42:08.364Z,98916.31
2023-01-05T16:44:36.520Z,98915.25
2023-01-05T16:47:10.531Z,98927.75
2023-01-05T16:49:53.331Z,98912.47
2023-01-05T16:52:27.249Z,98923.69
2023-01-05T16:55:29.562Z,98906.72
2023-01-05T16:57:57.349Z,98898.22
2023-01-05T17:00:30.161Z,98924.78
2023-01-05T17:02:58.274Z,98923.44
2023-01-05T17:05:27.780Z,98896.63
2023-01-05T17:08:21.882Z,98917.09
2023-01-05T17:10:49.250Z,98919.91
2023-01-05T17:13:26.100Z,98904.13
2023-01-05T17:15:55.245Z,98905.94
2023-01-05T17:18:24.843Z,98914.44
2023-01-05T17:20:56.637Z,98907.16
2023-01-05T17:23:33.747Z,98897.00
2023-01-05T17:26:04.441Z,98912.56
2023-01-05T17:28:30.929Z,98902.53
2023-01-05T17:30:57.650Z,98900.34
2023-01-05T17:33:30.275Z,98874.19
2023-01-05T17:35:56.863Z,98912.03
2023-01-05T17:38:25.555Z,98881.16
2023-01-05T17:40:55.129Z,98861.66
2023-01-05T17:43:25.090Z,98900.41
2023-01-05T17:45:52.684Z,98878.59
2023-01-05T17:48:22.273Z,98899.56
2023-01-05T17:50:50.999Z,98893.47
2023-01-05T17:53:22.303Z,98897.41
2023-01-05T17:55:48.906Z,98866.41
2023-01-05T17:58:16.025Z,98897.22
2023-01-05T18:03:22.839Z,98896.88
2023-01-05T18:05:55.302Z,98896.56
2023-01-05T18:08:24.719Z,98894.34
2023-01-05T18:10:53.781Z,98892.44
2023-01-05T18:13:25.130Z,98886.69
2023-01-05T18:15:53.338Z,98893.38
2023-01-05T18:18:21.693Z,98876.41
2023-01-05T18:20:51.948Z,98878.34
2023-01-05T18:23:22.127Z,98883.66
2023-01-05T18:25:48.649Z,98888.38
2023-01-05T18:28:15.286Z,98872.16
2023-01-05T18:30:42.533Z,98891.91
2023-01-05T18:33:09.105Z,98894.25
2023-01-05T18:35:37.294Z,98880.94
2023-01-05T18:38:05.227Z,98884.25
2023-01-05T18:40:31.850Z,98892.63
2023-01-05T18:42:58.621Z,98887.44
2023-01-05T18:45:38.093Z,98873.13
2023-01-05T18:48:05.595Z,98865.91
2023-01-05T18:50:32.124Z,98889.44
2023-01-05T18:52:58.550Z,98881.06
2023-01-05T18:55:25.067Z,98883.72
2023-01-05T18:57:55.028Z,98875.94
2023-01-05T19:00:24.522Z,98864.03
2023-01-05T19:02:54.194Z,98883.81
2023-01-05T19:05:23.588Z,98881.47
2023-01-05T19:07:53.340Z,98880.63
2023-01-05T19:10:22.093Z,98844.09
2023-01-05T19:12:48.639Z,98849.78
2023-01-05T19:15:17.699Z,98872.16
2023-01-05T19:17:44.258Z,98863.25
2023-01-05T19:20:11.167Z,98853.66
2023-01-05T19:22:38.751Z,98864.78
2023-01-05T19:25:07.052Z,98868.34
2023-01-05T19:27:33.656Z,98850.84
2023-01-05T19:30:00.123Z,98858.50
2023-01-05T19:32:26.591Z,98862.81
2023-01-05T19:34:55.909Z,98853.78
2023-01-05T19:37:25.145Z,98861.97
2023-01-05T19:39:54.831Z,98869.56
2023-01-05T19:42:25.721Z,98838.00
2023-01-05T19:44:54.877Z,98852.63
2023-01-05T19:47:22.200Z,98855.59
2023-01-05T19:49:48.710Z,98860.81
2023-01-05T19:52:15.223Z,98841.66
2023-01-05T19:54:42.199Z,98842.19
2023-01-05T19:57:08.686Z,98816.44
2023-01-05T19:59:36.502Z,98832.97
2023-01-05T20:02:05.173Z,98858.13
2023-01-05T20:04:32.636Z,98854.22
2023-01-05T20:07:02.338Z,98821.03
2023-01-05T20:09:29.476Z,98848.34
2023-01-05T20:12:05.759Z,98842.72
2023-01-05T20:14:39.356Z,98847.03
2023-01-05T20:17:08.746Z,98829.38
2023-01-05T20:20:05.812Z,98837.44
2023-01-05T20:22:32.329Z,98792.84
2023-01-05T20:24:58.792Z,98846.34
2023-01-05T20:27:25.217Z,98845.69
2023-01-05T20:29:52.820Z,98844.69
2023-01-05T20:32:22.406Z,98843.16
2023-01-05T20:34:59.564Z,98840.41
2023-01-05T20:37:27.625Z,98839.63
2023-01-05T20:39:59.403Z,98841.47
2023-01-05T20:42:27.473Z,98836.22
2023-01-05T20:44:57.719Z,98844.88
2023-01-05T20:47:27.226Z,98843.19
2023-01-05T20:49:57.692Z,98842.53
2023-01-05T20:52:27.124Z,98845.06
2023-01-05T20:54:56.662Z,98833.94
2023-01-05T20:57:24.597Z,98833.09
2023-01-05T20:59:51.125Z,98832.47
2023-01-05T21:02:24.014Z,98834.09
2023-01-05T21:04:55.638Z,98825.78
2023-01-05T21:07:24.680Z,98831.66
2023-01-05T21:09:53.332Z,98836.94
2023-01-05T21:12:20.720Z,98826.22
2023-01-05T21:14:55.236Z,98829.53
2023-01-05T21:17:21.716Z,98823.03
2023-01-05T21:19:48.270Z,98827.31
2023-01-05T21:22:17.248Z,98818.81
2023-01-05T21:24:45.269Z,98824.88
2023-01-05T21:27:11.833Z,98818.75
2023-01-05T21:29:38.280Z,98822.91
2023-01-05T21:32:04.900Z,98824.22
2023-01-05T21:34:31.417Z,98819.38
2023-01-05T21:36:57.918Z,98816.19
2023-01-05T21:39:28.902Z,98804.75
2023-01-05T21:42:16.832Z,98823.41
2023-01-05T21:44:43.361Z,98807.25
2023-01-05T21:47:10.050Z,98811.03
2023-01-05T21:49:36.843Z,98813.31
2023-01-05T21:52:22.478Z,98803.53
2023-01-05T21:55:09.634Z,98802.53
2023-01-05T21:57:36.227Z,98813.78
2023-01-05T22:00:03.162Z,98812.09
2023-01-05T22:02:29.587Z,98812.72
2023-01-05T22:04:56.975Z,98812.00
2023-01-05T22:07:25.924Z,98804.59
2023-01-05T22:09:52.436Z,98803.91
2023-01-05T22:12:18.911Z,98817.94
2023-01-05T22:14:46.023Z,98812.81
2023-01-05T22:17:12.931Z,98812.28
2023-01-05T22:19:39.643Z,98799.47
2023-01-05T22:22:06.237Z,98800.28
2023-01-05T22:24:32.847Z,98806.13
2023-01-05T22:26:59.705Z,98815.47
2023-01-05T22:29:29.621Z,98817.28
2023-01-05T22:32:02.030Z,98818.53
2023-01-05T22:34:30.147Z,98817.03
2023-01-05T22:36:59.701Z,98809.88
2023-01-05T22:39:26.871Z,98805.72
2023-01-05T22:41:54.378Z,98800.28
2023-01-05T22:44:21.302Z,98786.28
2023-01-05T22:46:48.067Z,98807.41
2023-01-05T22:49:16.617Z,98807.84
2023-01-05T22:51:44.937Z,98815.50
2023-01-05T22:54:12.195Z,98810.19
2023-01-05T22:56:38.987Z,98803.03
2023-01-05T22:59:05.626Z,98784.81
2023-01-05T23:01:37.760Z,98815.31
2023-01-05T23:04:06.032Z,98814.66
2023-01-05T23:06:33.046Z,98809.59
2023-01-05T23:09:04.795Z,98806.63
2023-01-05T23:11:35.849Z,98800.38
2023-01-05T23:14:04.512Z,98791.88
2023-01-05T23:16:33.275Z,98790.09
2023-01-05T23:19:03.506Z,98784.59
2023-01-05T23:21:33.840Z,98788.91
2023-01-05T23:24:03.268Z,98776.78
2023-01-05T23:26:32.753Z,98790.44
2023-01-05T23:29:01.563Z,98791.53
2023-01-05T23:31:28.336Z,98786.25
2023-01-05T23:33:55.338Z,98791.53
2023-01-05T23:36:23.662Z,98782.31
2023-01-05T23:38:50.503Z,98792.06
2023-01-05T23:41:17.652Z,98784.97
2023-01-05T23:43:45.325Z,98778.69
2023-01-05T23:46:16.444Z,98773.28
2023-01-05T23:48:43.764Z,98771.88
2023-01-05T23:51:13.953Z,98757.63
2023-01-05T23:53:42.927Z,98759.88
2023-01-05T23:56:23.133Z,98766.88
2023-01-05T23:58:55.088Z,98765.06
